Terminal Aerodrome Forecast
Issued by NWS

Home | Current Version | Previous Version | Text Only | Print | Product List | Glossary On
Versions: 1 2 3 4 5 6 7 8 9 10 11 12 13 14 15 16 17 18 19 20 21 22 23 24 25 26
000
FTUS43 KOAX 040520
TAFSNY
TAF
KSNY 040520Z 0406/0506 01008KT 1 1/2SM -SN BKN010 BKN020
     FM041100 35008KT P6SM VCSH SCT015 BKN025
     FM041800 34011KT P6SM SCT040=

USA.gov is the U.S. government's official web portal to all federal, state and local government web resources and services.